createdAt,value
2023-05-09T00:02:45.614Z,5.73
2023-05-09T00:05:47.864Z,5.66
2023-05-09T00:08:50.052Z,5.74
2023-05-09T00:11:52.233Z,6.03
2023-05-09T00:14:56.726Z,6.09
2023-05-09T00:17:59.438Z,5.95
2023-05-09T00:21:02.487Z,5.76
2023-05-09T00:24:05.661Z,5.71
2023-05-09T00:27:07.856Z,5.53
2023-05-09T00:30:10.338Z,5.39
2023-05-09T00:33:12.635Z,5.34
2023-05-09T00:36:14.779Z,5.50
2023-05-09T00:39:16.951Z,5.52
2023-05-09T00:42:19.130Z,5.59
2023-05-09T00:45:21.301Z,5.42
2023-05-09T00:48:23.574Z,5.36
2023-05-09T00:51:25.951Z,5.40
2023-05-09T00:54:28.276Z,5.06
2023-05-09T00:57:30.536Z,5.03
2023-05-09T01:00:32.817Z,4.79
2023-05-09T01:03:36.177Z,5.03
2023-05-09T01:06:47.496Z,5.27
2023-05-09T01:10:03.017Z,5.22
2023-05-09T01:13:35.728Z,5.38
2023-05-09T01:16:55.166Z,5.27
2023-05-09T01:20:11.030Z,5.45
2023-05-09T01:23:48.437Z,5.21
2023-05-09T01:27:05.530Z,5.03
2023-05-09T01:30:08.512Z,5.38
2023-05-09T01:33:13.778Z,5.51
2023-05-09T01:36:18.073Z,5.59
2023-05-09T01:39:21.158Z,5.51
2023-05-09T01:42:25.963Z,5.52
2023-05-09T01:45:28.350Z,5.27
2023-05-09T01:48:31.868Z,5.07
2023-05-09T01:51:35.528Z,5.42
2023-05-09T01:54:38.521Z,5.55
2023-05-09T01:57:40.984Z,5.38
2023-05-09T02:00:44.272Z,5.47
2023-05-09T02:03:50.625Z,5.62
2023-05-09T02:06:53.822Z,5.54
2023-05-09T02:09:56.581Z,5.78
2023-05-09T02:12:58.869Z,5.75
2023-05-09T02:16:01.484Z,5.49
2023-05-09T02:19:03.746Z,5.62
2023-05-09T02:22:06.192Z,5.66
2023-05-09T02:25:15.239Z,5.77
2023-05-09T02:28:18.672Z,5.73
2023-05-09T02:31:23.316Z,5.80
2023-05-09T02:34:25.812Z,5.55
2023-05-09T02:37:28.314Z,5.53
2023-05-09T02:40:31.061Z,5.53
2023-05-09T02:43:33.351Z,5.64
2023-05-09T02:46:35.652Z,5.70
2023-05-09T02:49:37.875Z,5.69
2023-05-09T02:52:41.313Z,5.71
2023-05-09T02:55:43.660Z,5.45
2023-05-09T02:58:51.123Z,5.42
2023-05-09T03:01:53.486Z,5.33
2023-05-09T03:04:56.582Z,5.47
2023-05-09T03:07:58.721Z,5.72
2023-05-09T03:11:01.038Z,5.43
2023-05-09T03:14:04.139Z,5.50
2023-05-09T03:17:06.333Z,5.45
2023-05-09T03:20:10.368Z,5.48
2023-05-09T03:23:12.714Z,5.45
2023-05-09T03:26:14.922Z,5.51
2023-05-09T03:29:17.142Z,5.66
2023-05-09T03:32:19.336Z,5.48
2023-05-09T03:35:21.570Z,5.43
2023-05-09T03:38:24.436Z,5.58
2023-05-09T03:41:26.843Z,5.57
2023-05-09T03:44:29.030Z,5.40
2023-05-09T03:47:31.304Z,5.50
2023-05-09T03:50:33.501Z,5.61
2023-05-09T03:53:35.808Z,5.92
2023-05-09T03:56:37.965Z,6.37
2023-05-09T03:59:40.159Z,7.03
2023-05-09T04:02:42.849Z,7.64
2023-05-09T04:05:45.092Z,8.15
2023-05-09T04:08:47.293Z,8.48
2023-05-09T04:11:49.460Z,8.26
2023-05-09T04:14:52.197Z,7.76
2023-05-09T04:17:54.472Z,8.52
2023-05-09T04:20:56.728Z,8.84
2023-05-09T04:23:58.858Z,8.61
2023-05-09T04:27:01.189Z,8.66
2023-05-09T04:30:03.893Z,8.72
2023-05-09T04:33:06.339Z,8.68
2023-05-09T04:36:09.203Z,8.48
2023-05-09T04:39:11.411Z,8.85
2023-05-09T04:42:13.609Z,8.72
2023-05-09T04:45:16.189Z,8.97
2023-05-09T04:48:18.582Z,8.76
2023-05-09T04:51:20.831Z,8.72
2023-05-09T04:54:22.980Z,8.76
2023-05-09T04:57:25.177Z,9.07
2023-05-09T05:00:27.356Z,8.89
2023-05-09T05:03:29.499Z,9.19
2023-05-09T05:06:31.990Z,9.28
2023-05-09T05:09:34.188Z,9.05
2023-05-09T05:12:36.763Z,8.89
2023-05-09T05:15:38.940Z,8.82
2023-05-09T05:18:41.110Z,9.31
2023-05-09T05:21:43.316Z,8.78
2023-05-09T05:24:45.763Z,8.78
2023-05-09T05:27:47.908Z,8.87
2023-05-09T05:30:50.088Z,9.23
2023-05-09T05:33:52.346Z,9.52
2023-05-09T05:36:54.520Z,9.68
2023-05-09T05:39:56.799Z,9.80
2023-05-09T05:42:59.044Z,9.74
2023-05-09T05:46:01.369Z,9.64
2023-05-09T05:49:04.205Z,10.34
2023-05-09T05:52:06.438Z,10.51
2023-05-09T05:55:09.300Z,10.75
2023-05-09T05:58:11.681Z,10.72
2023-05-09T06:01:14.476Z,11.10
2023-05-09T06:04:17.021Z,11.23
2023-05-09T06:07:19.248Z,11.51
2023-05-09T06:10:21.518Z,11.44
2023-05-09T06:13:23.907Z,11.65
2023-05-09T06:16:26.449Z,11.72
2023-05-09T06:19:28.746Z,11.73
2023-05-09T06:22:31.013Z,11.51
2023-05-09T06:25:33.221Z,11.58
2023-05-09T06:28:35.404Z,11.30
2023-05-09T06:31:39.095Z,11.82
2023-05-09T06:34:42.141Z,11.99
2023-05-09T06:37:45.511Z,12.20
2023-05-09T06:40:49.249Z,12.15
2023-05-09T06:43:52.406Z,12.48
2023-05-09T06:46:54.621Z,12.64
2023-05-09T06:49:56.772Z,12.71
2023-05-09T06:52:58.969Z,12.49
2023-05-09T06:56:01.183Z,12.56
2023-05-09T06:59:03.433Z,12.46
2023-05-09T07:02:05.815Z,12.28
2023-05-09T07:05:09.825Z,12.32
2023-05-09T07:08:12.093Z,12.66
2023-05-09T07:11:14.263Z,12.68
2023-05-09T07:14:16.487Z,12.71
2023-05-09T07:17:23.413Z,12.45
2023-05-09T07:20:26.284Z,12.86
2023-05-09T07:23:28.505Z,13.06
2023-05-09T07:26:30.685Z,13.50
2023-05-09T07:29:32.868Z,13.59
2023-05-09T07:32:35.746Z,13.46
2023-05-09T07:35:38.031Z,13.34
2023-05-09T07:38:40.707Z,13.50
2023-05-09T07:41:43.168Z,13.37
2023-05-09T07:44:45.636Z,13.47
2023-05-09T07:47:47.910Z,13.98
2023-05-09T07:50:50.292Z,13.64
2023-05-09T07:53:52.520Z,13.86
2023-05-09T07:56:54.823Z,14.19
2023-05-09T07:59:57.144Z,14.26
2023-05-09T08:02:59.581Z,14.43
2023-05-09T08:06:01.996Z,14.83
2023-05-09T08:09:04.782Z,14.74
2023-05-09T08:12:07.345Z,14.73
2023-05-09T08:15:09.995Z,14.36
2023-05-09T08:18:12.307Z,14.49
2023-05-09T08:21:14.531Z,14.86
2023-05-09T08:24:16.698Z,14.99
2023-05-09T08:27:18.904Z,15.42
2023-05-09T08:30:21.148Z,15.46
2023-05-09T08:33:23.597Z,15.16
2023-05-09T08:36:25.812Z,15.07
2023-05-09T08:39:28.018Z,15.22
2023-05-09T08:42:31.208Z,15.56
2023-05-09T08:45:35.811Z,15.22
2023-05-09T08:48:38.304Z,15.25
2023-05-09T08:51:41.091Z,14.79
2023-05-09T08:54:43.342Z,15.15
2023-05-09T08:57:45.944Z,15.31
2023-05-09T09:00:50.290Z,15.58
2023-05-09T09:03:52.583Z,15.41
2023-05-09T09:06:55.555Z,15.41
2023-05-09T09:09:57.913Z,15.11
2023-05-09T09:13:01.236Z,15.27
2023-05-09T09:16:04.016Z,15.37
2023-05-09T09:19:10.241Z,15.62
2023-05-09T09:22:15.994Z,16.42
2023-05-09T09:25:18.280Z,16.05
2023-05-09T09:28:20.971Z,15.86
2023-05-09T09:31:28.562Z,15.97
2023-05-09T09:34:30.881Z,15.52
2023-05-09T09:37:37.060Z,15.46
2023-05-09T09:40:40.616Z,16.11
2023-05-09T09:43:46.209Z,16.73
2023-05-09T09:46:50.383Z,16.97
2023-05-09T09:49:52.741Z,16.81
2023-05-09T09:52:56.532Z,17.07
2023-05-09T09:55:58.952Z,16.52
2023-05-09T09:59:12.527Z,16.71
2023-05-09T10:02:14.698Z,16.32
2023-05-09T10:05:20.522Z,15.32
2023-05-09T10:08:22.674Z,15.10
2023-05-09T10:11:24.843Z,15.54
2023-05-09T10:14:27.147Z,15.86
2023-05-09T10:17:31.910Z,15.46
2023-05-09T10:20:35.148Z,15.52
2023-05-09T10:23:38.092Z,15.93
2023-05-09T10:26:42.901Z,16.00
2023-05-09T10:29:52.189Z,15.51
2023-05-09T10:32:59.538Z,15.49
2023-05-09T10:36:03.485Z,15.30
2023-05-09T10:39:06.459Z,15.84
2023-05-09T10:42:09.298Z,15.99
2023-05-09T10:45:12.781Z,16.43
2023-05-09T10:48:15.227Z,16.61
2023-05-09T10:51:17.914Z,16.27
2023-05-09T10:54:32.428Z,16.06
2023-05-09T10:57:39.326Z,16.10
2023-05-09T11:00:42.417Z,16.47
2023-05-09T11:03:56.125Z,15.61
2023-05-09T11:06:59.994Z,15.46
2023-05-09T11:10:17.760Z,15.48
2023-05-09T11:13:23.511Z,16.20
2023-05-09T11:16:26.549Z,17.01
2023-05-09T11:20:03.673Z,16.61
2023-05-09T11:23:06.901Z,16.02
2023-05-09T11:26:09.422Z,15.98
2023-05-09T11:29:12.364Z,15.83
2023-05-09T11:32:15.867Z,15.34
2023-05-09T11:35:21.090Z,15.78
2023-05-09T11:38:23.408Z,16.13
2023-05-09T11:41:27.106Z,17.07
2023-05-09T11:44:31.744Z,17.24
2023-05-09T11:47:36.113Z,17.21
2023-05-09T11:50:38.390Z,17.26
2023-05-09T11:53:46.728Z,16.95
2023-05-09T11:56:48.915Z,16.79
2023-05-09T11:59:51.121Z,16.44
2023-05-09T12:02:53.796Z,16.32
2023-05-09T12:05:56.376Z,16.40
2023-05-09T12:08:58.634Z,16.16
2023-05-09T12:12:01.465Z,16.15
2023-05-09T12:15:07.025Z,16.53
2023-05-09T12:18:09.362Z,16.76
2023-05-09T12:21:12.210Z,17.09
2023-05-09T12:24:16.188Z,17.40
2023-05-09T12:27:18.817Z,17.76
2023-05-09T12:30:20.960Z,17.75
2023-05-09T12:33:23.727Z,16.99
2023-05-09T12:36:26.394Z,17.06
2023-05-09T12:39:28.610Z,17.62
2023-05-09T12:42:32.201Z,18.02
2023-05-09T12:45:34.447Z,17.77
2023-05-09T12:48:39.656Z,17.42
2023-05-09T12:51:51.455Z,17.12
2023-05-09T12:54:54.407Z,17.01
2023-05-09T12:57:58.945Z,17.52
2023-05-09T13:01:03.919Z,17.17
2023-05-09T13:04:07.443Z,17.16
2023-05-09T13:07:13.135Z,16.64
2023-05-09T13:10:27.450Z,16.68
2023-05-09T13:13:29.759Z,16.35
2023-05-09T13:16:32.191Z,16.24
2023-05-09T13:19:39.365Z,16.38
2023-05-09T13:22:41.829Z,16.06
2023-05-09T13:25:44.216Z,16.08
2023-05-09T13:28:46.461Z,16.60
2023-05-09T13:31:48.635Z,17.02
2023-05-09T13:34:53.976Z,16.60
2023-05-09T13:37:58.178Z,16.11
2023-05-09T13:41:00.468Z,16.05
2023-05-09T13:44:02.697Z,16.03
2023-05-09T13:47:07.669Z,16.01
2023-05-09T13:50:10.575Z,16.48
2023-05-09T13:53:12.943Z,16.87
2023-05-09T13:56:15.175Z,17.05
2023-05-09T13:59:17.628Z,17.18
2023-05-09T14:02:19.821Z,16.93
2023-05-09T14:05:22.859Z,16.86
2023-05-09T14:08:25.139Z,16.95
2023-05-09T14:11:27.734Z,17.32
2023-05-09T14:14:29.988Z,17.77
2023-05-09T14:17:32.337Z,17.60
2023-05-09T14:20:37.776Z,17.34
2023-05-09T14:23:39.987Z,17.23
2023-05-09T14:26:42.242Z,16.63
2023-05-09T14:29:44.412Z,16.47
2023-05-09T14:32:47.069Z,16.65
2023-05-09T14:35:49.742Z,16.80
2023-05-09T14:38:52.770Z,16.69
2023-05-09T14:41:56.347Z,16.93
2023-05-09T14:44:59.207Z,17.18
2023-05-09T14:48:03.979Z,17.29
2023-05-09T14:51:06.488Z,17.38
2023-05-09T14:54:09.713Z,17.13
2023-05-09T14:57:12.626Z,16.77
2023-05-09T15:00:21.093Z,16.66
2023-05-09T15:03:24.284Z,16.95
2023-05-09T15:06:26.771Z,17.01
2023-05-09T15:09:29.011Z,17.32
2023-05-09T15:12:31.530Z,17.40
2023-05-09T15:15:33.973Z,17.84
2023-05-09T15:18:36.242Z,17.55
2023-05-09T15:21:38.652Z,17.21
2023-05-09T15:24:44.623Z,17.10
2023-05-09T15:27:46.960Z,16.76
2023-05-09T15:30:49.330Z,16.71
2023-05-09T15:33:51.769Z,16.63
2023-05-09T15:36:54.021Z,16.69
2023-05-09T15:39:56.190Z,16.86
2023-05-09T15:42:59.686Z,17.04
2023-05-09T15:46:02.478Z,17.10
2023-05-09T15:49:04.754Z,17.14
2023-05-09T15:52:07.968Z,17.08
2023-05-09T15:55:11.011Z,16.91
2023-05-09T15:58:16.784Z,16.97
2023-05-09T16:01:19.639Z,16.84
2023-05-09T16:04:22.224Z,16.77
2023-05-09T16:07:26.791Z,16.92
2023-05-09T16:10:28.972Z,16.95
2023-05-09T16:13:31.970Z,16.94
2023-05-09T16:16:36.651Z,16.93
2023-05-09T16:19:38.915Z,16.73
2023-05-09T16:22:41.681Z,16.43
2023-05-09T16:25:44.994Z,16.31
2023-05-09T16:28:47.260Z,16.12
2023-05-09T16:31:49.847Z,16.08
2023-05-09T16:34:52.088Z,16.10
2023-05-09T16:37:54.445Z,16.02
2023-05-09T16:40:56.719Z,15.95
2023-05-09T16:43:59.056Z,15.94
2023-05-09T16:47:01.437Z,15.92
2023-05-09T16:50:04.776Z,15.97
2023-05-09T16:53:07.009Z,16.01
2023-05-09T16:56:11.043Z,15.82
2023-05-09T16:59:13.396Z,15.89
2023-05-09T17:02:15.580Z,15.87
2023-05-09T17:05:17.921Z,15.80
2023-05-09T17:08:20.140Z,15.76
2023-05-09T17:11:22.774Z,15.76
2023-05-09T17:14:24.977Z,15.73
2023-05-09T17:17:27.514Z,15.64
2023-05-09T17:20:30.039Z,15.58
2023-05-09T17:23:32.532Z,15.53
2023-05-09T17:26:35.059Z,15.45
2023-05-09T17:29:37.298Z,15.31
2023-05-09T17:32:41.513Z,15.29
2023-05-09T17:35:43.880Z,15.24
2023-05-09T17:38:46.092Z,15.31
2023-05-09T17:41:48.373Z,15.20
2023-05-09T17:44:51.028Z,15.21
2023-05-09T17:47:54.365Z,14.95
2023-05-09T17:50:56.900Z,14.95
2023-05-09T17:53:59.165Z,15.00
2023-05-09T17:57:02.244Z,14.89
2023-05-09T18:00:07.966Z,14.67
2023-05-09T18:03:10.337Z,14.64
2023-05-09T18:06:12.812Z,14.55
2023-05-09T18:09:15.232Z,14.52
2023-05-09T18:12:17.405Z,14.58
2023-05-09T18:15:19.807Z,14.37
2023-05-09T18:18:23.005Z,14.29
2023-05-09T18:21:28.203Z,14.32
2023-05-09T18:24:30.476Z,14.09
2023-05-09T18:27:32.738Z,14.00
2023-05-09T18:30:36.250Z,13.98
2023-05-09T18:33:42.856Z,13.87
2023-05-09T18:36:45.108Z,13.70
2023-05-09T18:39:48.839Z,13.57
2023-05-09T18:42:51.190Z,13.46
2023-05-09T18:45:54.288Z,13.47
2023-05-09T18:48:56.508Z,13.44
2023-05-09T18:52:00.206Z,13.34
2023-05-09T18:55:02.746Z,13.29
2023-05-09T18:58:04.988Z,13.30
2023-05-09T19:01:11.460Z,13.23
2023-05-09T19:04:17.230Z,13.21
2023-05-09T19:07:19.678Z,13.23
2023-05-09T19:10:22.087Z,13.22
2023-05-09T19:13:24.439Z,13.15
2023-05-09T19:16:27.095Z,13.08
2023-05-09T19:19:29.922Z,13.06
2023-05-09T19:22:32.403Z,12.98
2023-05-09T19:25:36.985Z,13.01
2023-05-09T19:28:39.238Z,12.87
2023-05-09T19:31:41.564Z,12.82
2023-05-09T19:34:44.038Z,12.76
2023-05-09T19:37:46.495Z,12.66
2023-05-09T19:40:48.980Z,12.55
2023-05-09T19:43:54.583Z,12.49
2023-05-09T19:46:58.526Z,12.38
2023-05-09T19:50:02.094Z,12.38
2023-05-09T19:53:04.664Z,12.28
2023-05-09T19:56:08.190Z,12.21
2023-05-09T19:59:10.674Z,12.08
2023-05-09T20:02:13.120Z,11.88
2023-05-09T20:05:15.518Z,11.91
2023-05-09T20:08:17.697Z,11.86
2023-05-09T20:11:21.027Z,11.80
2023-05-09T20:14:23.176Z,11.76
2023-05-09T20:17:25.510Z,11.73
2023-05-09T20:20:27.953Z,11.62
2023-05-09T20:23:31.112Z,11.60
2023-05-09T20:26:33.590Z,11.69
2023-05-09T20:29:36.208Z,11.70
2023-05-09T20:32:38.452Z,11.67
2023-05-09T20:35:43.214Z,11.58
2023-05-09T20:38:45.755Z,11.57
2023-05-09T20:41:48.519Z,11.52
2023-05-09T20:44:51.583Z,11.65
2023-05-09T20:47:54.102Z,11.55
2023-05-09T20:50:56.318Z,11.57
2023-05-09T20:53:58.878Z,11.49
2023-05-09T20:57:01.024Z,11.45
2023-05-09T21:00:03.939Z,11.44
2023-05-09T21:03:06.486Z,11.46
2023-05-09T21:06:08.848Z,11.53
2023-05-09T21:09:11.291Z,11.50
2023-05-09T21:12:13.612Z,11.40
2023-05-09T21:15:15.888Z,11.42
2023-05-09T21:18:18.818Z,11.41
2023-05-09T21:21:21.036Z,11.30
2023-05-09T21:24:23.200Z,11.18
2023-05-09T21:27:25.367Z,11.22
2023-05-09T21:30:27.584Z,11.12
2023-05-09T21:33:29.795Z,11.08
2023-05-09T21:36:31.992Z,11.19
2023-05-09T21:39:34.139Z,11.15
2023-05-09T21:42:37.376Z,11.16
2023-05-09T21:45:40.126Z,11.16
2023-05-09T21:48:42.309Z,11.03
2023-05-09T21:51:44.533Z,11.04
2023-05-09T21:54:46.746Z,11.04
2023-05-09T21:57:48.963Z,11.02
2023-05-09T22:00:51.169Z,11.08
2023-05-09T22:03:53.574Z,11.03
2023-05-09T22:06:55.969Z,10.97
2023-05-09T22:09:58.209Z,10.99
2023-05-09T22:13:00.451Z,10.91
2023-05-09T22:16:03.784Z,10.93
2023-05-09T22:19:06.434Z,10.92
2023-05-09T22:22:08.610Z,10.90
2023-05-09T22:25:10.882Z,10.92
2023-05-09T22:28:13.066Z,11.01
2023-05-09T22:31:15.268Z,11.10
2023-05-09T22:34:17.470Z,11.10
2023-05-09T22:37:19.831Z,11.14
2023-05-09T22:40:22.014Z,11.16
2023-05-09T22:43:25.395Z,11.09
2023-05-09T22:46:30.874Z,11.09
2023-05-09T22:49:33.763Z,11.08
2023-05-09T22:52:35.957Z,11.07
2023-05-09T22:55:38.748Z,11.02
2023-05-09T22:58:40.921Z,11.06
2023-05-09T23:01:43.153Z,10.96
2023-05-09T23:04:45.400Z,10.97
2023-05-09T23:07:47.737Z,10.96
2023-05-09T23:10:49.967Z,10.95
2023-05-09T23:13:52.252Z,10.92
2023-05-09T23:16:54.459Z,10.89
2023-05-09T23:19:56.653Z,10.87
2023-05-09T23:22:58.916Z,10.91
2023-05-09T23:26:01.099Z,10.86
2023-05-09T23:29:03.310Z,10.89
2023-05-09T23:32:06.027Z,10.98
2023-05-09T23:35:08.535Z,11.00
2023-05-09T23:38:10.722Z,10.94
2023-05-09T23:41:13.020Z,10.94
2023-05-09T23:44:15.223Z,10.88
2023-05-09T23:47:17.500Z,10.86
2023-05-09T23:50:19.765Z,10.76
2023-05-09T23:53:22.041Z,10.75
2023-05-09T23:56:25.295Z,10.67
2023-05-09T23:59:27.627Z,10.64
